createdAt,value
2023-03-23T00:02:04.535Z,13.20
2023-03-23T00:04:31.819Z,13.59
2023-03-23T00:06:58.729Z,13.69
2023-03-23T00:09:25.930Z,13.60
2023-03-23T00:11:53.805Z,13.72
2023-03-23T00:14:23.662Z,13.88
2023-03-23T00:16:51.948Z,13.86
2023-03-23T00:19:20.563Z,13.71
2023-03-23T00:21:47.605Z,13.66
2023-03-23T00:24:18.959Z,13.51
2023-03-23T00:26:48.058Z,13.75
2023-03-23T00:29:24.000Z,13.78
2023-03-23T00:31:50.989Z,13.59
2023-03-23T00:34:21.789Z,13.65
2023-03-23T00:36:54.613Z,13.63
2023-03-23T00:39:21.501Z,13.50
2023-03-23T00:41:49.020Z,13.56
2023-03-23T00:44:22.763Z,13.50
2023-03-23T00:46:50.923Z,13.54
2023-03-23T00:49:21.069Z,13.62
2023-03-23T00:51:47.933Z,13.55
2023-03-23T00:54:15.153Z,13.52
2023-03-23T00:56:42.090Z,13.48
2023-03-23T00:59:09.130Z,13.45
2023-03-23T01:01:36.846Z,13.54
2023-03-23T01:06:36.408Z,13.62
2023-03-23T01:09:04.533Z,13.47
2023-03-23T01:11:31.309Z,13.57
2023-03-23T01:13:58.272Z,13.54
2023-03-23T01:16:25.982Z,13.64
2023-03-23T01:18:52.989Z,13.68
2023-03-23T01:21:21.965Z,13.67
2023-03-23T01:23:49.512Z,13.81
2023-03-23T01:26:20.763Z,13.70
2023-03-23T01:28:48.447Z,13.83
2023-03-23T01:31:24.375Z,13.75
2023-03-23T01:33:55.773Z,13.79
2023-03-23T01:36:27.861Z,13.66
2023-03-23T01:38:55.142Z,13.64
2023-03-23T01:41:22.794Z,13.67
2023-03-23T01:43:55.283Z,13.59
2023-03-23T01:46:23.840Z,13.56
2023-03-23T01:48:52.106Z,13.39
2023-03-23T01:51:22.749Z,13.53
2023-03-23T01:53:58.108Z,13.31
2023-03-23T01:56:31.027Z,13.20
2023-03-23T01:58:57.880Z,13.23
2023-03-23T02:01:28.500Z,13.14
2023-03-23T02:03:57.696Z,13.08
2023-03-23T02:06:24.743Z,12.93
2023-03-23T02:08:53.226Z,12.93
2023-03-23T02:11:23.206Z,12.85
2023-03-23T02:13:51.804Z,12.80
2023-03-23T02:16:24.260Z,12.79
2023-03-23T02:19:04.741Z,13.01
2023-03-23T02:21:48.416Z,13.13
2023-03-23T02:24:45.005Z,13.44
2023-03-23T02:27:22.493Z,13.22
2023-03-23T02:30:07.534Z,13.28
2023-03-23T02:33:07.640Z,13.32
2023-03-23T02:35:45.369Z,13.44
2023-03-23T02:38:23.904Z,13.32
2023-03-23T02:40:52.440Z,13.31
2023-03-23T02:43:24.005Z,13.21
2023-03-23T02:46:07.516Z,13.36
2023-03-23T02:48:36.745Z,13.30
2023-03-23T02:53:36.616Z,13.26
2023-03-23T02:56:07.466Z,13.08
2023-03-23T02:58:34.960Z,13.00
2023-03-23T03:01:07.692Z,13.11
2023-03-23T03:03:34.780Z,13.01
2023-03-23T03:06:06.565Z,12.96
2023-03-23T03:08:56.081Z,13.13
2023-03-23T03:11:29.494Z,13.02
2023-03-23T03:16:40.028Z,12.99
2023-03-23T03:19:20.665Z,12.82
2023-03-23T03:21:51.110Z,12.89
2023-03-23T03:24:21.908Z,12.91
2023-03-23T03:26:52.927Z,12.94
2023-03-23T03:29:24.315Z,12.97
2023-03-23T03:31:57.002Z,13.07
2023-03-23T03:34:25.387Z,12.99
2023-03-23T03:36:56.804Z,12.87
2023-03-23T03:39:23.824Z,12.90
2023-03-23T03:41:51.022Z,12.88
2023-03-23T03:44:17.865Z,12.86
2023-03-23T03:46:44.753Z,12.85
2023-03-23T03:49:14.077Z,12.68
2023-03-23T03:51:41.940Z,12.72
2023-03-23T03:54:09.307Z,12.74
2023-03-23T03:56:38.192Z,12.71
2023-03-23T03:59:21.454Z,12.59
2023-03-23T04:01:32.370Z,12.54
2023-03-23T04:03:59.621Z,12.48
2023-03-23T04:06:29.099Z,12.46
2023-03-23T04:09:07.880Z,12.46
2023-03-23T04:11:33.323Z,12.42
2023-03-23T04:14:00.209Z,12.46
2023-03-23T04:16:30.795Z,12.50
2023-03-23T04:18:58.603Z,12.47
2023-03-23T04:21:30.075Z,12.47
2023-03-23T04:24:00.929Z,12.50
2023-03-23T04:26:30.191Z,12.49
2023-03-23T04:28:57.651Z,12.48
2023-03-23T04:31:27.568Z,12.49
2023-03-23T04:33:57.626Z,12.43
2023-03-23T04:36:27.456Z,12.40
2023-03-23T04:39:14.729Z,12.32
2023-03-23T04:41:41.833Z,12.33
2023-03-23T04:44:08.815Z,12.28
2023-03-23T04:46:35.854Z,12.29
2023-03-23T04:49:03.283Z,12.39
2023-03-23T04:51:32.596Z,12.28
2023-03-23T04:53:59.452Z,12.25
2023-03-23T04:56:26.212Z,12.26
2023-03-23T04:58:53.208Z,12.28
2023-03-23T05:01:20.057Z,12.17
2023-03-23T05:03:46.887Z,12.09
2023-03-23T05:06:13.984Z,12.07
2023-03-23T05:08:40.782Z,12.04
2023-03-23T05:11:08.148Z,12.02
2023-03-23T05:13:34.994Z,12.00
2023-03-23T05:18:33.901Z,11.89
2023-03-23T05:21:02.207Z,11.92
2023-03-23T05:23:32.007Z,11.93
2023-03-23T05:26:02.113Z,11.97
2023-03-23T05:28:29.953Z,11.98
2023-03-23T05:30:57.166Z,11.99
2023-03-23T05:33:24.096Z,11.97
2023-03-23T05:35:51.620Z,11.98
2023-03-23T05:38:19.291Z,12.02
2023-03-23T05:40:46.206Z,12.19
2023-03-23T05:43:13.442Z,12.04
2023-03-23T05:45:40.910Z,12.04
2023-03-23T05:48:08.478Z,11.90
2023-03-23T05:50:35.781Z,11.83
2023-03-23T05:53:04.835Z,11.62
2023-03-23T05:55:31.628Z,11.53
2023-03-23T05:58:00.285Z,11.58
2023-03-23T06:00:30.453Z,11.51
2023-03-23T06:02:58.034Z,11.63
2023-03-23T06:05:26.889Z,11.49
2023-03-23T06:07:55.123Z,11.32
2023-03-23T06:10:23.001Z,11.35
2023-03-23T06:12:51.598Z,11.40
2023-03-23T06:15:19.409Z,11.38
2023-03-23T06:17:46.178Z,11.43
2023-03-23T06:20:13.328Z,11.42
2023-03-23T06:22:41.342Z,11.36
2023-03-23T06:25:09.828Z,11.45
2023-03-23T06:27:36.707Z,11.45
2023-03-23T06:32:33.696Z,11.50
2023-03-23T06:35:00.636Z,11.53
2023-03-23T06:37:27.567Z,11.59
2023-03-23T06:39:55.212Z,11.64
2023-03-23T06:42:25.430Z,11.65
2023-03-23T06:44:52.976Z,11.64
2023-03-23T06:47:19.764Z,11.49
2023-03-23T06:49:46.880Z,11.65
2023-03-23T06:52:13.639Z,11.71
2023-03-23T06:54:41.375Z,11.80
2023-03-23T06:57:09.516Z,11.82
2023-03-23T06:59:36.576Z,11.95
2023-03-23T07:02:03.674Z,12.27
2023-03-23T07:04:30.702Z,12.43
2023-03-23T07:06:57.686Z,12.44
2023-03-23T07:09:37.654Z,12.72
2023-03-23T07:12:09.676Z,12.79
2023-03-23T07:14:36.961Z,12.79
2023-03-23T07:17:05.215Z,12.92
2023-03-23T07:19:32.138Z,13.00
2023-03-23T07:21:58.942Z,13.03
2023-03-23T07:24:26.054Z,13.20
2023-03-23T07:26:53.196Z,13.16
2023-03-23T07:29:20.027Z,13.18
2023-03-23T07:31:47.213Z,13.24
2023-03-23T07:34:14.736Z,13.32
2023-03-23T07:36:41.905Z,13.37
2023-03-23T07:39:08.822Z,13.37
2023-03-23T07:41:35.902Z,13.47
2023-03-23T07:44:02.756Z,13.51
2023-03-23T07:46:29.707Z,13.59
2023-03-23T07:48:57.790Z,13.66
2023-03-23T07:51:25.318Z,13.72
2023-03-23T07:53:52.788Z,13.71
2023-03-23T07:56:20.912Z,13.76
2023-03-23T07:58:48.065Z,13.72
2023-03-23T08:01:15.178Z,13.73
2023-03-23T08:03:42.217Z,13.69
2023-03-23T08:06:09.971Z,13.65
2023-03-23T08:08:38.265Z,13.68
2023-03-23T08:13:32.171Z,13.38
2023-03-23T08:15:59.103Z,13.27
2023-03-23T08:18:26.485Z,13.16
2023-03-23T08:20:55.506Z,13.08
2023-03-23T08:23:22.760Z,13.11
2023-03-23T08:25:50.044Z,13.06
2023-03-23T08:28:19.023Z,13.00
2023-03-23T08:30:45.813Z,12.99
2023-03-23T08:33:13.249Z,13.02
2023-03-23T08:35:40.389Z,12.90
2023-03-23T08:38:07.364Z,12.89
2023-03-23T08:40:34.122Z,12.93
2023-03-23T08:43:01.287Z,12.87
2023-03-23T08:45:29.073Z,12.92
2023-03-23T08:47:56.252Z,12.83
2023-03-23T08:50:26.871Z,12.76
2023-03-23T08:52:55.190Z,12.83
2023-03-23T08:55:23.088Z,12.89
2023-03-23T08:57:49.898Z,12.90
2023-03-23T09:00:19.936Z,12.98
2023-03-23T09:02:49.496Z,13.08
2023-03-23T09:05:18.362Z,13.06
2023-03-23T09:07:48.020Z,13.04
2023-03-23T09:10:15.927Z,13.05
2023-03-23T09:12:43.815Z,13.04
2023-03-23T09:15:14.959Z,13.03
2023-03-23T09:17:46.388Z,13.02
2023-03-23T09:20:15.227Z,13.02
2023-03-23T09:22:45.558Z,13.01
2023-03-23T09:25:15.694Z,13.10
2023-03-23T09:27:44.046Z,13.13
2023-03-23T09:30:13.474Z,13.41
2023-03-23T09:32:40.520Z,13.47
2023-03-23T09:35:15.378Z,13.43
2023-03-23T09:37:42.190Z,13.67
2023-03-23T09:40:15.787Z,13.67
2023-03-23T09:42:51.835Z,13.64
2023-03-23T09:45:58.297Z,13.57
2023-03-23T09:48:49.522Z,13.57
2023-03-23T09:51:41.623Z,13.55
2023-03-23T09:54:25.511Z,13.55
2023-03-23T09:56:53.041Z,13.57
2023-03-23T09:59:26.191Z,13.55
2023-03-23T10:01:59.126Z,13.53
2023-03-23T10:04:40.353Z,13.73
2023-03-23T10:07:19.008Z,13.84
2023-03-23T10:09:48.650Z,13.94
2023-03-23T10:12:39.518Z,13.86
2023-03-23T10:15:07.942Z,13.90
2023-03-23T10:18:07.742Z,13.85
2023-03-23T10:20:54.417Z,13.84
2023-03-23T10:23:21.360Z,13.93
2023-03-23T10:26:01.780Z,13.99
2023-03-23T10:28:42.324Z,14.05
2023-03-23T10:31:17.163Z,14.43
2023-03-23T10:33:50.343Z,14.32
2023-03-23T10:36:26.534Z,14.31
2023-03-23T10:41:32.382Z,14.42
2023-03-23T10:43:59.357Z,14.56
2023-03-23T10:46:40.213Z,14.80
2023-03-23T10:49:14.132Z,14.99
2023-03-23T10:51:45.681Z,14.95
2023-03-23T10:54:12.471Z,15.18
2023-03-23T10:56:58.730Z,15.91
2023-03-23T10:59:31.699Z,15.38
2023-03-23T11:02:04.172Z,15.64
2023-03-23T11:04:32.515Z,15.67
2023-03-23T11:07:02.253Z,15.99
2023-03-23T11:09:38.059Z,15.85
2023-03-23T11:14:36.492Z,15.61
2023-03-23T11:17:15.821Z,15.79
2023-03-23T11:19:46.075Z,15.51
2023-03-23T11:22:32.762Z,15.51
2023-03-23T11:27:33.535Z,15.63
2023-03-23T11:30:06.823Z,15.79
2023-03-23T11:32:33.694Z,15.84
2023-03-23T11:37:44.238Z,15.74
2023-03-23T11:40:12.605Z,15.32
2023-03-23T11:42:43.645Z,15.45
2023-03-23T11:45:41.552Z,15.00
2023-03-23T11:48:48.009Z,15.14
2023-03-23T11:51:18.245Z,14.99
2023-03-23T11:53:54.303Z,15.14
2023-03-23T11:56:29.953Z,15.12
2023-03-23T11:58:58.507Z,15.30
2023-03-23T12:01:50.127Z,15.38
2023-03-23T12:04:47.553Z,14.84
2023-03-23T12:07:34.843Z,14.67
2023-03-23T12:10:07.842Z,14.72
2023-03-23T12:13:00.131Z,14.59
2023-03-23T12:15:39.778Z,14.46
2023-03-23T12:18:08.109Z,14.54
2023-03-23T12:21:07.822Z,14.35
2023-03-23T12:23:47.775Z,14.27
2023-03-23T12:26:39.963Z,14.34
2023-03-23T12:29:07.942Z,14.11
2023-03-23T12:31:37.719Z,14.20
2023-03-23T12:34:08.000Z,14.02
2023-03-23T12:37:00.332Z,14.02
2023-03-23T12:39:42.345Z,14.00
2023-03-23T12:42:41.080Z,14.08
2023-03-23T12:45:20.463Z,14.45
2023-03-23T12:47:49.050Z,14.99
2023-03-23T12:50:37.160Z,15.42
2023-03-23T12:53:07.937Z,15.79
2023-03-23T12:55:46.524Z,15.37
2023-03-23T12:58:18.451Z,15.47
2023-03-23T13:00:57.685Z,15.72
2023-03-23T13:03:40.027Z,16.25
2023-03-23T13:06:07.817Z,15.77
2023-03-23T13:08:39.369Z,15.48
2023-03-23T13:11:06.906Z,15.40
2023-03-23T13:13:55.244Z,15.62
2023-03-23T13:16:49.623Z,15.77
2023-03-23T13:19:28.104Z,16.01
2023-03-23T13:21:57.935Z,15.96
2023-03-23T13:24:29.646Z,15.70
2023-03-23T13:26:59.462Z,16.14
2023-03-23T13:29:28.822Z,15.92
2023-03-23T13:32:08.228Z,16.04
2023-03-23T13:34:37.335Z,16.67
2023-03-23T13:37:07.972Z,17.03
2023-03-23T13:39:50.379Z,16.68
2023-03-23T13:42:17.153Z,17.49
2023-03-23T13:44:50.112Z,17.04
2023-03-23T13:47:27.767Z,17.11
2023-03-23T13:50:04.056Z,16.38
2023-03-23T13:52:49.167Z,16.58
2023-03-23T13:55:23.407Z,16.63
2023-03-23T13:58:06.902Z,16.25
2023-03-23T14:00:33.706Z,15.45
2023-03-23T14:03:07.924Z,15.31
2023-03-23T14:05:47.097Z,15.43
2023-03-23T14:08:23.016Z,15.15
2023-03-23T14:10:49.789Z,15.31
2023-03-23T14:13:21.203Z,15.02
2023-03-23T14:16:07.843Z,15.37
2023-03-23T14:18:39.617Z,15.30
2023-03-23T14:21:07.904Z,15.45
2023-03-23T14:23:38.831Z,15.60
2023-03-23T14:26:06.906Z,15.59
2023-03-23T14:28:41.063Z,15.32
2023-03-23T14:31:28.286Z,15.47
2023-03-23T14:33:57.918Z,15.17
2023-03-23T14:36:29.447Z,15.17
2023-03-23T14:39:08.264Z,15.00
2023-03-23T14:41:36.678Z,14.89
2023-03-23T14:44:08.034Z,14.95
2023-03-23T14:46:35.607Z,14.88
2023-03-23T14:51:32.306Z,15.04
2023-03-23T14:54:02.027Z,14.93
2023-03-23T14:56:37.352Z,14.98
2023-03-23T15:01:39.301Z,14.75
2023-03-23T15:04:08.303Z,14.84
2023-03-23T15:06:38.254Z,14.76
2023-03-23T15:09:08.168Z,14.67
2023-03-23T15:11:37.676Z,14.68
2023-03-23T15:14:07.930Z,14.62
2023-03-23T15:16:36.010Z,14.47
2023-03-23T15:19:08.055Z,14.31
2023-03-23T15:21:47.380Z,14.26
2023-03-23T15:24:35.613Z,14.31
2023-03-23T15:27:07.991Z,14.16
2023-03-23T15:29:34.823Z,14.12
2023-03-23T15:32:04.917Z,14.11
2023-03-23T15:34:42.449Z,14.03
2023-03-23T15:37:40.505Z,13.99
2023-03-23T15:40:17.961Z,13.91
2023-03-23T15:42:44.875Z,13.98
2023-03-23T15:45:12.655Z,13.81
2023-03-23T15:47:42.241Z,13.77
2023-03-23T15:50:16.559Z,13.80
2023-03-23T15:52:44.916Z,13.83
2023-03-23T15:55:28.045Z,13.91
2023-03-23T15:57:56.851Z,14.04
2023-03-23T16:00:28.414Z,14.14
2023-03-23T16:05:33.769Z,14.29
2023-03-23T16:08:01.539Z,14.28
2023-03-23T16:10:29.278Z,14.39
2023-03-23T16:12:56.144Z,14.23
2023-03-23T16:15:23.187Z,14.18
2023-03-23T16:17:50.211Z,14.24
2023-03-23T16:20:22.076Z,14.14
2023-03-23T16:22:49.878Z,14.12
2023-03-23T16:25:19.073Z,14.16
2023-03-23T16:27:51.788Z,14.11
2023-03-23T16:30:25.220Z,14.11
2023-03-23T16:32:54.113Z,14.14
2023-03-23T16:35:22.451Z,14.13
2023-03-23T16:37:51.473Z,14.05
2023-03-23T16:40:33.428Z,14.04
2023-03-23T16:43:00.392Z,14.00
2023-03-23T16:45:27.562Z,14.02
2023-03-23T16:47:56.905Z,13.99
2023-03-23T16:50:25.782Z,14.03
2023-03-23T16:52:52.688Z,14.06
2023-03-23T16:55:19.574Z,14.12
2023-03-23T16:57:46.468Z,14.05
2023-03-23T17:00:16.483Z,14.02
2023-03-23T17:02:45.209Z,14.02
2023-03-23T17:05:12.415Z,13.99
2023-03-23T17:07:40.715Z,13.93
2023-03-23T17:10:09.805Z,13.95
2023-03-23T17:12:37.077Z,13.95
2023-03-23T17:15:04.582Z,13.94
2023-03-23T17:17:31.670Z,13.89
2023-03-23T17:19:58.720Z,13.89
2023-03-23T17:22:26.262Z,13.83
2023-03-23T17:24:53.718Z,13.78
2023-03-23T17:27:22.140Z,13.78
2023-03-23T17:29:49.243Z,13.78
2023-03-23T17:32:16.221Z,13.69
2023-03-23T17:34:43.298Z,13.66
2023-03-23T17:37:10.832Z,13.72
2023-03-23T17:39:43.344Z,13.67
2023-03-23T17:42:11.321Z,13.71
2023-03-23T17:44:38.357Z,13.64
2023-03-23T17:47:05.494Z,13.66
2023-03-23T17:49:32.799Z,13.64
2023-03-23T17:52:00.300Z,13.67
2023-03-23T17:54:29.748Z,13.64
2023-03-23T17:56:58.884Z,13.59
2023-03-23T17:59:26.327Z,13.61
2023-03-23T18:01:53.816Z,13.63
2023-03-23T18:04:21.056Z,13.60
2023-03-23T18:06:48.017Z,13.65
2023-03-23T18:09:15.776Z,13.58
2023-03-23T18:11:42.637Z,13.53
2023-03-23T18:14:09.422Z,13.54
2023-03-23T18:16:36.539Z,13.46
2023-03-23T18:19:03.823Z,13.46
2023-03-23T18:21:30.945Z,13.45
2023-03-23T18:23:59.536Z,13.51
2023-03-23T18:26:27.746Z,13.44
2023-03-23T18:28:55.010Z,13.39
2023-03-23T18:31:22.472Z,13.44
2023-03-23T18:33:51.045Z,13.38
2023-03-23T18:36:20.916Z,13.38
2023-03-23T18:38:48.869Z,13.35
2023-03-23T18:41:17.243Z,13.33
2023-03-23T18:43:44.649Z,13.34
2023-03-23T18:46:11.570Z,13.35
2023-03-23T18:48:38.786Z,13.37
2023-03-23T18:53:33.370Z,13.50
2023-03-23T18:56:07.083Z,13.48
2023-03-23T18:58:34.252Z,13.49
2023-03-23T19:01:07.162Z,13.47
2023-03-23T19:03:35.520Z,13.50
2023-03-23T19:06:03.071Z,13.47
2023-03-23T19:08:31.359Z,13.41
2023-03-23T19:11:01.804Z,13.44
2023-03-23T19:13:30.483Z,13.47
2023-03-23T19:15:57.382Z,13.39
2023-03-23T19:18:24.426Z,13.38
2023-03-23T19:23:22.611Z,13.37
2023-03-23T19:25:49.883Z,13.32
2023-03-23T19:30:49.978Z,13.26
2023-03-23T19:33:17.373Z,13.27
2023-03-23T19:35:46.345Z,13.27
2023-03-23T19:38:13.600Z,13.21
2023-03-23T19:40:51.639Z,13.16
2023-03-23T19:43:19.105Z,13.15
2023-03-23T19:45:46.334Z,13.14
2023-03-23T19:48:13.164Z,13.10
2023-03-23T19:50:40.738Z,13.10
2023-03-23T19:53:07.603Z,13.12
2023-03-23T19:55:34.517Z,13.10
2023-03-23T19:58:01.316Z,13.09
2023-03-23T20:00:28.698Z,13.12
2023-03-23T20:02:58.194Z,13.08
2023-03-23T20:05:25.139Z,13.05
2023-03-23T20:07:53.911Z,13.07
2023-03-23T20:10:21.298Z,13.04
2023-03-23T20:12:48.426Z,13.04
2023-03-23T20:15:15.691Z,12.99
2023-03-23T20:17:42.925Z,12.95
2023-03-23T20:20:11.262Z,12.92
2023-03-23T20:22:38.181Z,12.95
2023-03-23T20:27:32.651Z,12.92
2023-03-23T20:30:00.095Z,12.89
2023-03-23T20:32:33.446Z,12.86
2023-03-23T20:37:34.906Z,12.83
2023-03-23T20:40:03.442Z,12.80
2023-03-23T20:42:34.695Z,12.81
2023-03-23T20:45:02.780Z,12.80
2023-03-23T20:47:29.694Z,12.72
2023-03-23T20:49:57.175Z,12.76
2023-03-23T20:52:26.570Z,12.76
2023-03-23T20:54:55.434Z,12.73
2023-03-23T20:57:23.307Z,12.67
2023-03-23T20:59:51.715Z,12.64
2023-03-23T21:02:20.386Z,12.62
2023-03-23T21:04:49.206Z,12.60
2023-03-23T21:07:16.766Z,12.60
2023-03-23T21:09:43.792Z,12.57
2023-03-23T21:12:11.324Z,12.52
2023-03-23T21:14:39.676Z,12.51
2023-03-23T21:17:07.262Z,12.48
2023-03-23T21:19:34.869Z,12.46
2023-03-23T21:22:01.982Z,12.40
2023-03-23T21:24:31.864Z,12.34
2023-03-23T21:27:02.428Z,12.26
2023-03-23T21:29:29.481Z,12.19
2023-03-23T21:34:27.784Z,12.14
2023-03-23T21:36:54.608Z,12.07
2023-03-23T21:39:22.498Z,12.10
2023-03-23T21:41:50.079Z,12.06
2023-03-23T21:44:18.468Z,12.10
2023-03-23T21:46:45.416Z,12.07
2023-03-23T21:49:14.575Z,12.06
2023-03-23T21:51:42.071Z,12.03
2023-03-23T21:54:10.588Z,12.04
2023-03-23T21:56:38.268Z,12.02
2023-03-23T22:01:32.489Z,11.98
2023-03-23T22:03:59.372Z,12.06
2023-03-23T22:06:28.695Z,12.02
2023-03-23T22:08:56.458Z,12.03
2023-03-23T22:11:27.817Z,11.97
2023-03-23T22:13:56.329Z,11.99
2023-03-23T22:16:24.041Z,11.97
2023-03-23T22:18:52.568Z,11.98
2023-03-23T22:21:22.260Z,11.97
2023-03-23T22:23:49.584Z,11.91
2023-03-23T22:26:17.449Z,11.90
2023-03-23T22:28:49.815Z,11.90
2023-03-23T22:31:25.639Z,11.83
2023-03-23T22:33:56.868Z,11.80
2023-03-23T22:36:26.634Z,11.85
2023-03-23T22:38:55.292Z,11.85
2023-03-23T22:41:25.497Z,11.82
2023-03-23T22:43:52.735Z,11.81
2023-03-23T22:46:20.081Z,11.73
2023-03-23T22:48:46.895Z,11.77
2023-03-23T22:51:15.997Z,11.82
2023-03-23T22:53:43.172Z,11.78
2023-03-23T22:56:10.678Z,11.78
2023-03-23T22:58:38.408Z,11.76
2023-03-23T23:01:07.343Z,11.76
2023-03-23T23:03:34.740Z,11.74
2023-03-23T23:06:02.382Z,11.72
2023-03-23T23:08:30.337Z,11.70
2023-03-23T23:10:58.864Z,11.62
2023-03-23T23:13:26.734Z,11.64
2023-03-23T23:15:55.474Z,11.63
2023-03-23T23:18:23.199Z,11.59
2023-03-23T23:20:52.656Z,11.65
2023-03-23T23:23:19.933Z,11.68
2023-03-23T23:25:47.815Z,11.67
2023-03-23T23:28:14.781Z,11.65
2023-03-23T23:30:41.625Z,11.70
2023-03-23T23:33:09.546Z,11.69
2023-03-23T23:35:38.773Z,11.66
2023-03-23T23:40:36.134Z,11.70
2023-03-23T23:43:03.822Z,11.57
2023-03-23T23:45:31.767Z,11.68
2023-03-23T23:47:59.558Z,11.74
2023-03-23T23:50:27.185Z,11.68
2023-03-23T23:52:54.511Z,11.63
2023-03-23T23:55:21.807Z,11.65
2023-03-23T23:57:49.379Z,11.68
